sensor_id;sensor_type;location;lat;lon;timestamp;P1;durP1;ratioP1;P2;durP2;ratioP2
53313;SDS011;39202;51.468;7.146;2022-11-04T00:00:23;0.50;;;0.50;;
53313;SDS011;39202;51.468;7.146;2022-11-04T00:05:26;0.40;;;0.40;;
53313;SDS011;39202;51.468;7.146;2022-11-04T00:10:28;0.50;;;0.50;;
53313;SDS011;39202;51.468;7.146;2022-11-04T00:15:43;0.55;;;0.55;;
53313;SDS011;39202;51.468;7.146;2022-11-04T00:21:00;0.60;;;0.60;;
53313;SDS011;39202;51.468;7.146;2022-11-04T00:26:19;0.50;;;0.50;;
53313;SDS011;39202;51.468;7.146;2022-11-04T00:31:39;0.60;;;0.50;;
53313;SDS011;39202;51.468;7.146;2022-11-04T00:36:59;0.50;;;0.50;;
53313;SDS011;39202;51.468;7.146;2022-11-04T00:42:02;0.57;;;0.57;;
53313;SDS011;39202;51.468;7.146;2022-11-04T00:47:04;0.52;;;0.52;;
53313;SDS011;39202;51.468;7.146;2022-11-04T00:52:07;0.50;;;0.50;;
53313;SDS011;39202;51.468;7.146;2022-11-04T00:57:09;0.60;;;0.60;;
53313;SDS011;39202;51.468;7.146;2022-11-04T01:02:11;0.50;;;0.50;;
53313;SDS011;39202;51.468;7.146;2022-11-04T01:07:14;0.40;;;0.40;;
53313;SDS011;39202;51.468;7.146;2022-11-04T01:12:15;0.60;;;0.60;;
53313;SDS011;39202;51.468;7.146;2022-11-04T01:17:17;0.40;;;0.40;;
53313;SDS011;39202;51.468;7.146;2022-11-04T01:22:20;0.40;;;0.40;;
53313;SDS011;39202;51.468;7.146;2022-11-04T01:27:22;0.50;;;0.50;;
53313;SDS011;39202;51.468;7.146;2022-11-04T01:32:24;0.50;;;0.50;;
53313;SDS011;39202;51.468;7.146;2022-11-04T01:37:28;0.43;;;0.43;;
53313;SDS011;39202;51.468;7.146;2022-11-04T01:42:30;0.43;;;0.43;;
53313;SDS011;39202;51.468;7.146;2022-11-04T01:47:34;0.60;;;0.60;;
53313;SDS011;39202;51.468;7.146;2022-11-04T01:52:42;0.60;;;0.60;;
53313;SDS011;39202;51.468;7.146;2022-11-04T01:57:49;0.47;;;0.47;;
53313;SDS011;39202;51.468;7.146;2022-11-04T02:02:53;0.40;;;0.40;;
53313;SDS011;39202;51.468;7.146;2022-11-04T02:08:01;0.45;;;0.45;;
53313;SDS011;39202;51.468;7.146;2022-11-04T02:13:05;0.40;;;0.40;;
53313;SDS011;39202;51.468;7.146;2022-11-04T02:18:20;0.60;;;0.60;;
53313;SDS011;39202;51.468;7.146;2022-11-04T02:23:52;0.43;;;0.43;;
53313;SDS011;39202;51.468;7.146;2022-11-04T02:29:10;0.60;;;0.60;;
53313;SDS011;39202;51.468;7.146;2022-11-04T02:34:38;0.52;;;0.52;;
53313;SDS011;39202;51.468;7.146;2022-11-04T02:39:49;0.57;;;0.57;;
53313;SDS011;39202;51.468;7.146;2022-11-04T02:45:01;0.50;;;0.50;;
53313;SDS011;39202;51.468;7.146;2022-11-04T02:50:13;0.40;;;0.40;;
53313;SDS011;39202;51.468;7.146;2022-11-04T02:55:21;0.50;;;0.50;;
53313;SDS011;39202;51.468;7.146;2022-11-04T03:00:28;0.50;;;0.50;;
53313;SDS011;39202;51.468;7.146;2022-11-04T03:05:31;0.52;;;0.52;;
53313;SDS011;39202;51.468;7.146;2022-11-04T03:10:37;0.50;;;0.50;;
53313;SDS011;39202;51.468;7.146;2022-11-04T03:15:47;0.52;;;0.52;;
53313;SDS011;39202;51.468;7.146;2022-11-04T03:20:51;0.50;;;0.50;;
53313;SDS011;39202;51.468;7.146;2022-11-04T03:25:57;0.63;;;0.63;;
53313;SDS011;39202;51.468;7.146;2022-11-04T03:31:11;0.50;;;0.50;;
53313;SDS011;39202;51.468;7.146;2022-11-04T03:36:19;0.40;;;0.40;;
53313;SDS011;39202;51.468;7.146;2022-11-04T03:41:26;0.40;;;0.40;;
53313;SDS011;39202;51.468;7.146;2022-11-04T03:46:31;0.40;;;0.40;;
53313;SDS011;39202;51.468;7.146;2022-11-04T03:51:34;0.50;;;0.50;;
53313;SDS011;39202;51.468;7.146;2022-11-04T04:02:03;0.40;;;0.40;;
53313;SDS011;39202;51.468;7.146;2022-11-04T04:07:11;0.40;;;0.40;;
53313;SDS011;39202;51.468;7.146;2022-11-04T04:12:19;0.50;;;0.50;;
53313;SDS011;39202;51.468;7.146;2022-11-04T04:17:30;0.47;;;0.47;;
53313;SDS011;39202;51.468;7.146;2022-11-04T04:22:38;0.50;;;0.50;;
53313;SDS011;39202;51.468;7.146;2022-11-04T04:27:42;0.50;;;0.50;;
53313;SDS011;39202;51.468;7.146;2022-11-04T04:32:47;0.47;;;0.47;;
53313;SDS011;39202;51.468;7.146;2022-11-04T04:37:52;0.50;;;0.50;;
53313;SDS011;39202;51.468;7.146;2022-11-04T04:43:16;0.47;;;0.47;;
53313;SDS011;39202;51.468;7.146;2022-11-04T04:48:36;0.52;;;0.52;;
53313;SDS011;39202;51.468;7.146;2022-11-04T04:53:38;0.45;;;0.45;;
53313;SDS011;39202;51.468;7.146;2022-11-04T04:58:40;0.40;;;0.40;;
53313;SDS011;39202;51.468;7.146;2022-11-04T05:03:43;0.40;;;0.40;;
53313;SDS011;39202;51.468;7.146;2022-11-04T05:08:44;0.40;;;0.40;;
53313;SDS011;39202;51.468;7.146;2022-11-04T05:13:46;0.45;;;0.45;;
53313;SDS011;39202;51.468;7.146;2022-11-04T05:18:51;0.40;;;0.40;;
53313;SDS011;39202;51.468;7.146;2022-11-04T05:23:52;0.45;;;0.45;;
53313;SDS011;39202;51.468;7.146;2022-11-04T05:28:54;0.40;;;0.40;;
53313;SDS011;39202;51.468;7.146;2022-11-04T05:33:57;0.40;;;0.40;;
53313;SDS011;39202;51.468;7.146;2022-11-04T05:39:00;0.50;;;0.50;;
53313;SDS011;39202;51.468;7.146;2022-11-04T05:44:02;0.40;;;0.40;;
53313;SDS011;39202;51.468;7.146;2022-11-04T05:49:05;0.50;;;0.50;;
53313;SDS011;39202;51.468;7.146;2022-11-04T05:54:07;0.50;;;0.50;;
53313;SDS011;39202;51.468;7.146;2022-11-04T05:59:09;0.50;;;0.50;;
53313;SDS011;39202;51.468;7.146;2022-11-04T06:04:13;0.65;;;0.65;;
53313;SDS011;39202;51.468;7.146;2022-11-04T06:09:16;0.38;;;0.38;;
53313;SDS011;39202;51.468;7.146;2022-11-04T06:14:18;0.43;;;0.43;;
53313;SDS011;39202;51.468;7.146;2022-11-04T06:19:21;0.50;;;0.50;;
53313;SDS011;39202;51.468;7.146;2022-11-04T06:24:23;0.75;;;0.50;;
53313;SDS011;39202;51.468;7.146;2022-11-04T06:29:24;0.60;;;0.60;;
53313;SDS011;39202;51.468;7.146;2022-11-04T06:34:27;0.50;;;0.50;;
53313;SDS011;39202;51.468;7.146;2022-11-04T06:39:29;0.98;;;0.60;;
53313;SDS011;39202;51.468;7.146;2022-11-04T06:44:31;0.57;;;0.57;;
53313;SDS011;39202;51.468;7.146;2022-11-04T06:49:35;1.80;;;0.52;;
53313;SDS011;39202;51.468;7.146;2022-11-04T06:54:37;0.73;;;0.68;;
53313;SDS011;39202;51.468;7.146;2022-11-04T06:59:38;0.65;;;0.65;;
53313;SDS011;39202;51.468;7.146;2022-11-04T07:04:41;0.50;;;0.50;;
53313;SDS011;39202;51.468;7.146;2022-11-04T07:09:43;0.85;;;0.70;;
53313;SDS011;39202;51.468;7.146;2022-11-04T07:14:45;0.57;;;0.57;;
53313;SDS011;39202;51.468;7.146;2022-11-04T07:19:48;0.50;;;0.50;;
53313;SDS011;39202;51.468;7.146;2022-11-04T07:24:50;0.77;;;0.77;;
53313;SDS011;39202;51.468;7.146;2022-11-04T07:29:52;1.60;;;0.77;;
53313;SDS011;39202;51.468;7.146;2022-11-04T07:34:55;2.17;;;0.90;;
53313;SDS011;39202;51.468;7.146;2022-11-04T07:39:57;0.82;;;0.80;;
53313;SDS011;39202;51.468;7.146;2022-11-04T07:44:58;0.88;;;0.80;;
53313;SDS011;39202;51.468;7.146;2022-11-04T07:50:02;0.85;;;0.77;;
53313;SDS011;39202;51.468;7.146;2022-11-04T07:55:04;1.08;;;0.70;;
53313;SDS011;39202;51.468;7.146;2022-11-04T08:00:07;1.15;;;0.95;;
53313;SDS011;39202;51.468;7.146;2022-11-04T08:05:12;0.70;;;0.70;;
53313;SDS011;39202;51.468;7.146;2022-11-04T08:10:13;1.13;;;0.77;;
53313;SDS011;39202;51.468;7.146;2022-11-04T08:15:15;1.15;;;0.90;;
53313;SDS011;39202;51.468;7.146;2022-11-04T08:20:18;0.90;;;0.90;;
53313;SDS011;39202;51.468;7.146;2022-11-04T08:25:20;0.95;;;0.82;;
53313;SDS011;39202;51.468;7.146;2022-11-04T08:30:22;4.57;;;1.23;;
53313;SDS011;39202;51.468;7.146;2022-11-04T08:35:25;3.22;;;1.80;;
53313;SDS011;39202;51.468;7.146;2022-11-04T08:40:27;2.78;;;1.60;;
53313;SDS011;39202;51.468;7.146;2022-11-04T08:45:29;4.35;;;2.05;;
53313;SDS011;39202;51.468;7.146;2022-11-04T08:50:32;3.30;;;1.85;;
53313;SDS011;39202;51.468;7.146;2022-11-04T08:55:34;3.42;;;1.70;;
53313;SDS011;39202;51.468;7.146;2022-11-04T09:00:35;3.83;;;1.98;;
53313;SDS011;39202;51.468;7.146;2022-11-04T09:05:39;3.33;;;1.60;;
53313;SDS011;39202;51.468;7.146;2022-11-04T09:10:45;2.28;;;1.58;;
53313;SDS011;39202;51.468;7.146;2022-11-04T09:15:47;3.90;;;1.90;;
53313;SDS011;39202;51.468;7.146;2022-11-04T09:20:50;4.05;;;1.88;;
53313;SDS011;39202;51.468;7.146;2022-11-04T09:25:52;4.60;;;1.90;;
53313;SDS011;39202;51.468;7.146;2022-11-04T09:30:56;4.60;;;1.77;;
53313;SDS011;39202;51.468;7.146;2022-11-04T09:35:59;2.90;;;1.88;;
53313;SDS011;39202;51.468;7.146;2022-11-04T09:41:07;2.88;;;1.65;;
53313;SDS011;39202;51.468;7.146;2022-11-04T09:46:11;2.90;;;1.75;;
53313;SDS011;39202;51.468;7.146;2022-11-04T09:51:16;3.15;;;1.88;;
53313;SDS011;39202;51.468;7.146;2022-11-04T09:56:21;3.42;;;1.98;;
53313;SDS011;39202;51.468;7.146;2022-11-04T10:01:25;2.67;;;1.60;;
53313;SDS011;39202;51.468;7.146;2022-11-04T10:06:34;2.05;;;1.45;;
53313;SDS011;39202;51.468;7.146;2022-11-04T10:11:47;3.20;;;1.67;;
53313;SDS011;39202;51.468;7.146;2022-11-04T10:17:02;2.60;;;1.77;;
53313;SDS011;39202;51.468;7.146;2022-11-04T10:22:15;2.70;;;1.70;;
53313;SDS011;39202;51.468;7.146;2022-11-04T10:27:28;2.72;;;1.63;;
53313;SDS011;39202;51.468;7.146;2022-11-04T10:32:34;3.03;;;1.85;;
53313;SDS011;39202;51.468;7.146;2022-11-04T10:37:41;2.50;;;1.50;;
53313;SDS011;39202;51.468;7.146;2022-11-04T10:42:43;3.03;;;1.60;;
53313;SDS011;39202;51.468;7.146;2022-11-04T10:47:46;2.22;;;1.52;;
53313;SDS011;39202;51.468;7.146;2022-11-04T10:53:04;2.65;;;1.38;;
53313;SDS011;39202;51.468;7.146;2022-11-04T10:58:14;3.95;;;1.70;;
53313;SDS011;39202;51.468;7.146;2022-11-04T11:03:27;2.85;;;1.80;;
53313;SDS011;39202;51.468;7.146;2022-11-04T11:08:32;2.15;;;1.70;;
53313;SDS011;39202;51.468;7.146;2022-11-04T11:13:37;2.25;;;1.73;;
53313;SDS011;39202;51.468;7.146;2022-11-04T11:18:40;2.40;;;1.60;;
53313;SDS011;39202;51.468;7.146;2022-11-04T11:23:44;1.85;;;1.35;;
53313;SDS011;39202;51.468;7.146;2022-11-04T11:28:48;2.85;;;1.92;;
53313;SDS011;39202;51.468;7.146;2022-11-04T11:33:53;2.10;;;1.58;;
53313;SDS011;39202;51.468;7.146;2022-11-04T11:38:59;2.40;;;1.60;;
53313;SDS011;39202;51.468;7.146;2022-11-04T11:44:05;3.25;;;1.80;;
53313;SDS011;39202;51.468;7.146;2022-11-04T11:49:22;2.78;;;1.50;;
53313;SDS011;39202;51.468;7.146;2022-11-04T11:54:29;2.85;;;1.50;;
53313;SDS011;39202;51.468;7.146;2022-11-04T11:59:37;2.28;;;1.58;;
53313;SDS011;39202;51.468;7.146;2022-11-04T12:04:44;1.88;;;1.50;;
53313;SDS011;39202;51.468;7.146;2022-11-04T12:09:48;2.00;;;1.83;;
53313;SDS011;39202;51.468;7.146;2022-11-04T12:15:07;2.10;;;1.40;;
53313;SDS011;39202;51.468;7.146;2022-11-04T12:20:24;1.48;;;1.27;;
53313;SDS011;39202;51.468;7.146;2022-11-04T12:25:37;2.95;;;1.52;;
53313;SDS011;39202;51.468;7.146;2022-11-04T12:30:48;1.65;;;1.50;;
53313;SDS011;39202;51.468;7.146;2022-11-04T12:36:05;1.77;;;1.27;;
53313;SDS011;39202;51.468;7.146;2022-11-04T12:41:24;1.60;;;1.50;;
53313;SDS011;39202;51.468;7.146;2022-11-04T12:46:34;1.63;;;1.40;;
53313;SDS011;39202;51.468;7.146;2022-11-04T12:51:42;1.95;;;1.50;;
53313;SDS011;39202;51.468;7.146;2022-11-04T12:56:57;1.73;;;1.40;;
53313;SDS011;39202;51.468;7.146;2022-11-04T13:02:13;2.15;;;1.63;;
53313;SDS011;39202;51.468;7.146;2022-11-04T13:07:21;1.85;;;1.40;;
53313;SDS011;39202;51.468;7.146;2022-11-04T13:12:31;1.55;;;1.40;;
53313;SDS011;39202;51.468;7.146;2022-11-04T13:17:38;1.75;;;1.38;;
53313;SDS011;39202;51.468;7.146;2022-11-04T13:22:42;2.83;;;1.45;;
53313;SDS011;39202;51.468;7.146;2022-11-04T13:27:47;1.80;;;1.50;;
53313;SDS011;39202;51.468;7.146;2022-11-04T13:32:51;2.35;;;1.38;;
53313;SDS011;39202;51.468;7.146;2022-11-04T13:37:58;2.65;;;1.33;;
53313;SDS011;39202;51.468;7.146;2022-11-04T13:43:10;1.50;;;1.40;;
53313;SDS011;39202;51.468;7.146;2022-11-04T13:48:37;1.70;;;1.30;;
53313;SDS011;39202;51.468;7.146;2022-11-04T13:53:50;2.67;;;1.42;;
53313;SDS011;39202;51.468;7.146;2022-11-04T13:58:55;2.30;;;1.60;;
53313;SDS011;39202;51.468;7.146;2022-11-04T14:04:02;1.92;;;1.38;;
53313;SDS011;39202;51.468;7.146;2022-11-04T14:09:23;1.70;;;1.50;;
53313;SDS011;39202;51.468;7.146;2022-11-04T14:14:51;2.53;;;1.42;;
53313;SDS011;39202;51.468;7.146;2022-11-04T14:20:07;2.20;;;1.30;;
53313;SDS011;39202;51.468;7.146;2022-11-04T14:25:18;2.85;;;1.73;;
53313;SDS011;39202;51.468;7.146;2022-11-04T14:30:41;2.80;;;1.65;;
53313;SDS011;39202;51.468;7.146;2022-11-04T14:35:45;3.70;;;1.58;;
53313;SDS011;39202;51.468;7.146;2022-11-04T14:40:48;1.83;;;1.30;;
53313;SDS011;39202;51.468;7.146;2022-11-04T14:45:52;1.30;;;1.20;;
53313;SDS011;39202;51.468;7.146;2022-11-04T14:50:55;1.35;;;1.25;;
53313;SDS011;39202;51.468;7.146;2022-11-04T14:56:04;1.45;;;1.33;;
53313;SDS011;39202;51.468;7.146;2022-11-04T15:01:14;2.13;;;1.30;;
53313;SDS011;39202;51.468;7.146;2022-11-04T15:06:22;1.75;;;1.30;;
53313;SDS011;39202;51.468;7.146;2022-11-04T15:11:26;2.25;;;1.40;;
53313;SDS011;39202;51.468;7.146;2022-11-04T15:16:48;2.70;;;1.50;;
53313;SDS011;39202;51.468;7.146;2022-11-04T15:21:52;1.65;;;1.23;;
53313;SDS011;39202;51.468;7.146;2022-11-04T15:26:56;1.85;;;1.27;;
53313;SDS011;39202;51.468;7.146;2022-11-04T15:32:03;1.92;;;1.48;;
53313;SDS011;39202;51.468;7.146;2022-11-04T15:37:05;1.55;;;1.10;;
53313;SDS011;39202;51.468;7.146;2022-11-04T15:42:10;3.53;;;1.42;;
53313;SDS011;39202;51.468;7.146;2022-11-04T15:47:35;1.70;;;1.60;;
53313;SDS011;39202;51.468;7.146;2022-11-04T15:52:37;1.75;;;1.27;;
53313;SDS011;39202;51.468;7.146;2022-11-04T15:57:45;1.77;;;1.20;;
53313;SDS011;39202;51.468;7.146;2022-11-04T16:02:50;1.48;;;1.38;;
53313;SDS011;39202;51.468;7.146;2022-11-04T16:07:54;1.58;;;1.38;;
53313;SDS011;39202;51.468;7.146;2022-11-04T16:13:21;2.78;;;1.40;;
53313;SDS011;39202;51.468;7.146;2022-11-04T16:18:28;1.77;;;1.48;;
53313;SDS011;39202;51.468;7.146;2022-11-04T16:23:36;1.73;;;1.50;;
53313;SDS011;39202;51.468;7.146;2022-11-04T16:28:43;1.35;;;1.25;;
53313;SDS011;39202;51.468;7.146;2022-11-04T16:33:46;2.03;;;1.60;;
53313;SDS011;39202;51.468;7.146;2022-11-04T16:38:50;1.40;;;1.30;;
53313;SDS011;39202;51.468;7.146;2022-11-04T16:43:52;1.75;;;1.40;;
53313;SDS011;39202;51.468;7.146;2022-11-04T16:48:56;1.42;;;1.20;;
53313;SDS011;39202;51.468;7.146;2022-11-04T16:53:58;1.50;;;1.40;;
53313;SDS011;39202;51.468;7.146;2022-11-04T16:59:01;1.50;;;1.40;;
53313;SDS011;39202;51.468;7.146;2022-11-04T17:04:04;2.13;;;1.42;;
53313;SDS011;39202;51.468;7.146;2022-11-04T17:09:09;1.52;;;1.40;;
53313;SDS011;39202;51.468;7.146;2022-11-04T17:14:19;1.52;;;1.25;;
53313;SDS011;39202;51.468;7.146;2022-11-04T17:19:22;1.42;;;1.30;;
53313;SDS011;39202;51.468;7.146;2022-11-04T17:24:24;1.40;;;1.30;;
53313;SDS011;39202;51.468;7.146;2022-11-04T17:29:26;1.58;;;1.10;;
53313;SDS011;39202;51.468;7.146;2022-11-04T17:34:30;2.75;;;1.35;;
53313;SDS011;39202;51.468;7.146;2022-11-04T17:39:31;1.42;;;1.33;;
53313;SDS011;39202;51.468;7.146;2022-11-04T17:44:33;1.40;;;1.30;;
53313;SDS011;39202;51.468;7.146;2022-11-04T17:49:36;1.25;;;1.20;;
53313;SDS011;39202;51.468;7.146;2022-11-04T17:54:38;1.40;;;1.30;;
53313;SDS011;39202;51.468;7.146;2022-11-04T17:59:40;1.35;;;1.20;;
53313;SDS011;39202;51.468;7.146;2022-11-04T18:04:43;1.42;;;1.33;;
53313;SDS011;39202;51.468;7.146;2022-11-04T18:09:45;2.63;;;1.17;;
53313;SDS011;39202;51.468;7.146;2022-11-04T18:14:47;1.13;;;1.10;;
53313;SDS011;39202;51.468;7.146;2022-11-04T18:19:50;1.42;;;1.20;;
53313;SDS011;39202;51.468;7.146;2022-11-04T18:24:52;1.30;;;1.25;;
53313;SDS011;39202;51.468;7.146;2022-11-04T18:29:53;1.88;;;1.38;;
53313;SDS011;39202;51.468;7.146;2022-11-04T18:34:56;1.42;;;1.23;;
53313;SDS011;39202;51.468;7.146;2022-11-04T18:39:58;1.48;;;1.30;;
53313;SDS011;39202;51.468;7.146;2022-11-04T18:45:00;1.23;;;1.15;;
53313;SDS011;39202;51.468;7.146;2022-11-04T18:50:03;1.05;;;1.05;;
53313;SDS011;39202;51.468;7.146;2022-11-04T18:55:06;1.40;;;1.30;;
53313;SDS011;39202;51.468;7.146;2022-11-04T19:00:09;1.23;;;1.13;;
53313;SDS011;39202;51.468;7.146;2022-11-04T19:05:13;1.70;;;1.30;;
53313;SDS011;39202;51.468;7.146;2022-11-04T19:10:14;3.03;;;1.45;;
53313;SDS011;39202;51.468;7.146;2022-11-04T19:15:16;2.08;;;1.60;;
53313;SDS011;39202;51.468;7.146;2022-11-04T19:20:19;2.25;;;1.50;;
53313;SDS011;39202;51.468;7.146;2022-11-04T19:25:22;2.85;;;1.60;;
53313;SDS011;39202;51.468;7.146;2022-11-04T19:30:24;1.73;;;1.50;;
53313;SDS011;39202;51.468;7.146;2022-11-04T19:35:27;1.83;;;1.40;;
53313;SDS011;39202;51.468;7.146;2022-11-04T19:40:29;1.90;;;1.38;;
53313;SDS011;39202;51.468;7.146;2022-11-04T19:45:30;2.67;;;1.40;;
53313;SDS011;39202;51.468;7.146;2022-11-04T19:50:34;1.30;;;1.20;;
53313;SDS011;39202;51.468;7.146;2022-11-04T19:55:38;1.52;;;1.42;;
53313;SDS011;39202;51.468;7.146;2022-11-04T20:00:40;1.33;;;1.23;;
53313;SDS011;39202;51.468;7.146;2022-11-04T20:05:43;1.70;;;1.60;;
53313;SDS011;39202;51.468;7.146;2022-11-04T20:10:45;1.60;;;1.50;;
53313;SDS011;39202;51.468;7.146;2022-11-04T20:15:47;1.90;;;1.23;;
53313;SDS011;39202;51.468;7.146;2022-11-04T20:20:50;1.50;;;1.40;;
53313;SDS011;39202;51.468;7.146;2022-11-04T20:25:51;1.50;;;1.38;;
53313;SDS011;39202;51.468;7.146;2022-11-04T20:30:53;1.50;;;1.40;;
53313;SDS011;39202;51.468;7.146;2022-11-04T20:35:56;1.50;;;1.40;;
53313;SDS011;39202;51.468;7.146;2022-11-04T20:41:00;1.40;;;1.30;;
53313;SDS011;39202;51.468;7.146;2022-11-04T20:46:04;1.80;;;1.52;;
53313;SDS011;39202;51.468;7.146;2022-11-04T20:51:09;1.50;;;1.40;;
53313;SDS011;39202;51.468;7.146;2022-11-04T20:56:13;1.52;;;1.40;;
53313;SDS011;39202;51.468;7.146;2022-11-04T21:01:17;1.70;;;1.60;;
53313;SDS011;39202;51.468;7.146;2022-11-04T21:06:26;1.40;;;1.30;;
53313;SDS011;39202;51.468;7.146;2022-11-04T21:11:29;2.95;;;1.67;;
53313;SDS011;39202;51.468;7.146;2022-11-04T21:16:31;1.70;;;1.60;;
53313;SDS011;39202;51.468;7.146;2022-11-04T21:21:34;1.70;;;1.60;;
53313;SDS011;39202;51.468;7.146;2022-11-04T21:26:36;2.05;;;1.38;;
53313;SDS011;39202;51.468;7.146;2022-11-04T21:31:37;1.55;;;1.45;;
53313;SDS011;39202;51.468;7.146;2022-11-04T21:36:41;1.60;;;1.40;;
53313;SDS011;39202;51.468;7.146;2022-11-04T21:41:43;2.00;;;1.63;;
53313;SDS011;39202;51.468;7.146;2022-11-04T21:46:44;1.58;;;1.45;;
53313;SDS011;39202;51.468;7.146;2022-11-04T21:51:48;1.60;;;1.50;;
53313;SDS011;39202;51.468;7.146;2022-11-04T21:56:50;1.48;;;1.38;;
53313;SDS011;39202;51.468;7.146;2022-11-04T22:01:52;1.50;;;1.40;;
53313;SDS011;39202;51.468;7.146;2022-11-04T22:06:55;2.00;;;1.58;;
53313;SDS011;39202;51.468;7.146;2022-11-04T22:11:57;1.40;;;1.30;;
53313;SDS011;39202;51.468;7.146;2022-11-04T22:16:59;1.50;;;1.40;;
53313;SDS011;39202;51.468;7.146;2022-11-04T22:22:02;1.48;;;1.38;;
53313;SDS011;39202;51.468;7.146;2022-11-04T22:27:03;1.35;;;1.35;;
53313;SDS011;39202;51.468;7.146;2022-11-04T22:32:05;1.52;;;1.42;;
53313;SDS011;39202;51.468;7.146;2022-11-04T22:37:08;2.10;;;1.60;;
53313;SDS011;39202;51.468;7.146;2022-11-04T22:42:10;1.40;;;1.30;;
53313;SDS011;39202;51.468;7.146;2022-11-04T22:47:12;3.05;;;1.65;;
53313;SDS011;39202;51.468;7.146;2022-11-04T22:52:15;1.40;;;1.30;;
53313;SDS011;39202;51.468;7.146;2022-11-04T22:57:16;1.80;;;1.70;;
53313;SDS011;39202;51.468;7.146;2022-11-04T23:02:18;1.63;;;1.52;;
53313;SDS011;39202;51.468;7.146;2022-11-04T23:07:21;1.75;;;1.65;;
53313;SDS011;39202;51.468;7.146;2022-11-04T23:12:23;1.38;;;1.38;;
53313;SDS011;39202;51.468;7.146;2022-11-04T23:17:42;1.60;;;1.50;;
53313;SDS011;39202;51.468;7.146;2022-11-04T23:23:02;1.52;;;1.42;;
53313;SDS011;39202;51.468;7.146;2022-11-04T23:28:21;1.60;;;1.50;;
53313;SDS011;39202;51.468;7.146;2022-11-04T23:33:41;1.52;;;1.42;;
53313;SDS011;39202;51.468;7.146;2022-11-04T23:39:01;1.52;;;1.40;;
53313;SDS011;39202;51.468;7.146;2022-11-04T23:44:03;1.58;;;1.45;;
53313;SDS011;39202;51.468;7.146;2022-11-04T23:49:25;1.40;;;1.38;;
53313;SDS011;39202;51.468;7.146;2022-11-04T23:54:45;1.77;;;1.67;;
